Time;durP1;ratioP1;P1;durP2;ratioP2;P2;SDS_P1;SDS_P2;PMS_P1;PMS_P2;Temp;Humidity;BMP_temperature;BMP_pressure;BME280_temperature;BME280_humidity;BME280_pressure;Samples;Min_cycle;Max_cycle;Signal;HPM_P1;HPM_P2
2023/12/05 00:05:26;;;;;;;1.02;0.55;;;-2.10;99.90;;;;;;20992134;28;20071;-53
2023/12/05 00:15:28;;;;;;;2.15;0.60;;;-2.10;99.90;;;;;;20933186;28;20040;-52
2023/12/05 00:25:30;;;;;;;1.50;0.63;;;-2.10;99.90;;;;;;20951113;28;20379;-49
2023/12/05 00:35:31;;;;;;;1.80;0.52;;;-2.10;99.90;;;;;;20945136;28;20029;-55
2023/12/05 00:45:33;;;;;;;2.25;0.75;;;-2.00;99.90;;;;;;20908268;28;20083;-55
2023/12/05 00:55:35;;;;;;;0.85;0.55;;;-2.10;99.90;;;;;;20905738;28;20090;-50
2023/12/05 01:05:37;;;;;;;0.70;0.50;;;-2.00;99.90;;;;;;20905610;28;20029;-51
2023/12/05 01:15:39;;;;;;;1.80;0.55;;;-2.00;99.90;;;;;;20945524;28;20045;-50
2023/12/05 01:25:44;;;;;;;1.35;0.50;;;-2.00;99.90;;;;;;20907340;28;20056;-52
2023/12/05 01:35:45;;;;;;;0.90;0.63;;;-2.00;99.90;;;;;;20921025;28;20033;-52
2023/12/05 01:45:47;;;;;;;0.88;0.50;;;-2.00;99.90;;;;;;20919626;28;20029;-50
2023/12/05 01:55:50;;;;;;;0.98;0.40;;;-2.00;99.90;;;;;;20919127;28;20087;-47
2023/12/05 02:05:52;;;;;;;0.70;0.40;;;-1.90;99.90;;;;;;20918664;28;20462;-54
2023/12/05 02:16:04;;;;;;;0.75;0.40;;;-1.90;99.90;;;;;;20917658;28;20032;-52
2023/12/05 02:26:26;;;;;;;0.90;0.47;;;-1.80;99.90;;;;;;20999851;28;20062;-55
2023/12/05 02:36:56;;;;;;;0.63;0.35;;;-1.70;99.90;;;;;;20997766;28;20051;-53
2023/12/05 02:47:00;;;;;;;0.85;0.60;;;-1.70;99.90;;;;;;20998262;28;20437;-52
2023/12/05 02:57:02;;;;;;;0.75;0.35;;;-1.70;99.90;;;;;;20996950;28;20036;-52
2023/12/05 03:07:03;;;;;;;0.65;0.40;;;-1.70;99.90;;;;;;20996317;28;20028;-54
2023/12/05 03:17:05;;;;;;;1.48;0.55;;;-1.70;99.90;;;;;;20994802;28;20482;-55
2023/12/05 03:27:07;;;;;;;0.80;0.40;;;-1.70;99.90;;;;;;20994714;28;20037;-51
2023/12/05 03:37:09;;;;;;;1.02;0.50;;;-1.70;99.90;;;;;;20993314;28;20071;-52
2023/12/05 03:47:10;;;;;;;1.75;0.63;;;-1.60;99.90;;;;;;20990675;28;20033;-52
2023/12/05 03:57:12;;;;;;;1.30;0.80;;;-1.60;99.90;;;;;;20989297;28;20031;-54
2023/12/05 04:07:17;;;;;;;1.08;0.60;;;-1.60;99.90;;;;;;20988073;28;20040;-50
2023/12/05 04:17:18;;;;;;;1.15;0.70;;;-1.60;99.90;;;;;;20988326;28;20053;-48
2023/12/05 04:27:20;;;;;;;1.40;0.90;;;-1.50;99.90;;;;;;20987944;28;20044;-54
2023/12/05 04:37:22;;;;;;;1.70;0.80;;;-1.40;99.90;;;;;;20986875;28;20028;-50
2023/12/05 04:47:23;;;;;;;1.17;0.73;;;-1.30;99.90;;;;;;20986915;28;20031;-52
2023/12/05 04:57:25;;;;;;;2.05;0.70;;;-1.30;99.90;;;;;;20986263;28;20032;-55
2023/12/05 05:07:27;;;;;;;0.90;0.68;;;-1.20;99.90;;;;;;21001019;28;20066;-52
2023/12/05 05:17:28;;;;;;;1.65;0.70;;;-1.30;99.90;;;;;;21002133;28;20066;-49
2023/12/05 05:27:30;;;;;;;3.17;1.20;;;-1.30;99.90;;;;;;20945873;28;20103;-53
2023/12/05 05:37:32;;;;;;;1.73;0.85;;;-1.30;99.90;;;;;;20924611;28;20033;-54
2023/12/05 05:47:34;;;;;;;1.38;0.82;;;-1.30;99.90;;;;;;21000073;28;20036;-52
2023/12/05 05:57:35;;;;;;;1.90;0.80;;;-1.20;99.90;;;;;;20942638;28;20060;-53
2023/12/05 06:07:37;;;;;;;1.02;0.70;;;-1.20;99.90;;;;;;20923148;28;20036;-51
2023/12/05 06:17:39;;;;;;;0.40;0.30;;;-1.10;99.90;;;;;;20969998;28;20118;-47
2023/12/05 06:27:41;;;;;;;0.15;0.10;;;-1.10;99.90;;;;;;20996943;28;20039;-52
2023/12/05 06:37:42;;;;;;;0.40;0.30;;;-1.00;99.90;;;;;;20988547;28;20028;-52
2023/12/05 06:47:44;;;;;;;2.05;0.40;;;-1.00;99.90;;;;;;20995884;28;20055;-49
2023/12/05 06:57:46;;;;;;;0.30;0.22;;;-0.90;99.90;;;;;;20994603;28;20024;-51
2023/12/05 07:07:48;;;;;;;0.50;0.40;;;-0.80;99.90;;;;;;20994105;28;20036;-52
2023/12/05 07:17:50;;;;;;;0.47;0.30;;;-0.70;99.90;;;;;;20992119;28;20048;-51
2023/12/05 07:27:51;;;;;;;0.95;0.30;;;-0.70;99.90;;;;;;20983718;28;20024;-49
2023/12/05 07:37:53;;;;;;;3.40;0.50;;;-0.50;99.90;;;;;;20986362;28;20539;-54
2023/12/05 07:47:55;;;;;;;0.35;0.30;;;-0.40;99.90;;;;;;20989938;28;20036;-51
2023/12/05 07:57:57;;;;;;;0.60;0.20;;;-0.20;99.90;;;;;;20989948;28;20078;-52
2023/12/05 08:07:59;;;;;;;0.10;0.00;;;0.20;99.90;;;;;;20989698;28;20371;-54
2023/12/05 08:18:00;;;;;;;0.13;0.10;;;0.60;99.90;;;;;;20988720;28;20044;-50
2023/12/05 08:28:02;;;;;;;0.30;0.17;;;1.00;99.90;;;;;;20980675;28;20502;-53
2023/12/05 08:38:05;;;;;;;0.50;0.20;;;1.20;99.90;;;;;;20986780;28;20078;-55
2023/12/05 08:48:06;;;;;;;0.70;0.40;;;1.20;99.90;;;;;;20987824;28;20033;-55
2023/12/05 08:58:08;;;;;;;0.60;0.40;;;1.30;99.90;;;;;;20979344;28;20032;-53
2023/12/05 09:08:10;;;;;;;0.30;0.20;;;1.60;99.90;;;;;;20977833;28;20410;-54
2023/12/05 09:18:13;;;;;;;0.60;0.30;;;1.90;99.90;;;;;;20981903;28;20040;-55
2023/12/05 09:28:14;;;;;;;0.38;0.30;;;2.10;99.90;;;;;;20971653;28;20098;-55
2023/12/05 09:38:17;;;;;;;0.30;0.20;;;2.20;99.90;;;;;;20969494;28;20049;-53
2023/12/05 09:48:20;;;;;;;0.20;0.03;;;2.20;99.90;;;;;;20991124;28;20029;-54
2023/12/05 09:58:23;;;;;;;0.00;0.00;;;2.40;99.90;;;;;;21000301;28;20082;-51
2023/12/05 10:08:25;;;;;;;0.63;0.20;;;2.80;99.90;;;;;;20991687;28;20041;-55
2023/12/05 10:18:29;;;;;;;1.15;0.45;;;2.90;99.90;;;;;;20998128;28;20559;-54
2023/12/05 10:28:30;;;;;;;0.88;0.40;;;2.70;99.90;;;;;;20989883;28;20055;-53
2023/12/05 10:38:36;;;;;;;0.63;0.47;;;2.30;99.90;;;;;;20988875;28;20028;-56
2023/12/05 10:48:38;;;;;;;0.40;0.30;;;2.30;99.90;;;;;;20996691;28;20044;-54
2023/12/05 10:58:41;;;;;;;0.47;0.20;;;2.90;99.90;;;;;;20994674;28;20043;-53
2023/12/05 11:08:43;;;;;;;1.00;0.50;;;3.40;99.90;;;;;;20994612;28;20036;-53
2023/12/05 11:18:50;;;;;;;1.13;0.50;;;2.80;99.90;;;;;;20993911;28;20106;-49
2023/12/05 11:28:59;;;;;;;1.55;0.77;;;2.60;99.90;;;;;;20993131;28;20037;-51
2023/12/05 11:39:06;;;;;;;1.35;0.80;;;3.70;99.90;;;;;;20991881;28;20173;-49
2023/12/05 11:49:07;;;;;;;0.63;0.45;;;3.80;99.90;;;;;;20991945;28;20036;-50
2023/12/05 11:59:16;;;;;;;0.50;0.30;;;4.50;99.90;;;;;;20983108;28;20044;-54
2023/12/05 12:09:18;;;;;;;1.42;0.93;;;4.80;99.90;;;;;;20981821;28;20032;-49
2023/12/05 12:19:22;;;;;;;1.75;0.93;;;5.30;99.90;;;;;;20981921;28;20075;-50
2023/12/05 12:29:25;;;;;;;1.98;0.88;;;4.90;99.90;;;;;;20981118;28;20041;-52
2023/12/05 12:39:29;;;;;;;1.67;0.88;;;4.70;99.90;;;;;;20979723;28;20429;-50
2023/12/05 12:49:31;;;;;;;0.77;0.50;;;3.80;99.90;;;;;;20988075;28;20032;-48
2023/12/05 12:59:33;;;;;;;0.70;0.40;;;3.60;99.90;;;;;;20975626;28;20033;-51
2023/12/05 13:09:35;;;;;;;0.90;0.30;;;4.00;99.90;;;;;;20986985;28;20037;-49
2023/12/05 13:19:38;;;;;;;0.50;0.30;;;4.10;99.90;;;;;;20985908;28;20115;-53
2023/12/05 13:29:39;;;;;;;0.60;0.30;;;3.90;99.90;;;;;;21002537;28;20551;-51
2023/12/05 13:39:41;;;;;;;0.30;0.20;;;3.70;99.90;;;;;;20984959;28;20044;-51
2023/12/05 13:49:43;;;;;;;0.40;0.20;;;4.20;99.90;;;;;;21001494;28;20083;-51
2023/12/05 13:59:44;;;;;;;0.85;0.55;;;4.70;99.90;;;;;;21000417;28;20105;-48
2023/12/05 14:09:46;;;;;;;0.68;0.40;;;4.20;99.90;;;;;;20983691;28;20078;-53
2023/12/05 14:19:48;;;;;;;0.40;0.30;;;3.20;99.90;;;;;;20998594;28;20048;-53
2023/12/05 14:29:50;;;;;;;0.68;0.47;;;2.40;99.90;;;;;;20998248;28;20457;-52
2023/12/05 14:39:52;;;;;;;1.25;0.77;;;2.20;99.90;;;;;;20996319;28;20028;-51
2023/12/05 14:49:54;;;;;;;0.60;0.30;;;1.90;99.90;;;;;;20997141;28;20114;-53
2023/12/05 14:59:56;;;;;;;0.80;0.50;;;1.80;99.90;;;;;;20995943;28;20037;-50
2023/12/05 15:09:57;;;;;;;0.45;0.30;;;1.50;99.90;;;;;;20986953;28;20032;-52
2023/12/05 15:19:59;;;;;;;0.60;0.40;;;1.50;99.90;;;;;;20976491;28;20047;-52
2023/12/05 15:30:03;;;;;;;0.45;0.30;;;1.30;99.90;;;;;;20985635;28;20094;-52
2023/12/05 15:40:10;;;;;;;0.85;0.40;;;1.20;99.90;;;;;;20983967;28;20090;-51
2023/12/05 15:50:12;;;;;;;0.52;0.30;;;1.00;99.90;;;;;;20990658;28;20082;-52
2023/12/05 16:00:15;;;;;;;0.35;0.22;;;0.80;99.90;;;;;;20983158;28;20047;-50
2023/12/05 16:10:16;;;;;;;0.70;0.20;;;0.70;99.90;;;;;;20991866;28;20054;-53
2023/12/05 16:20:18;;;;;;;0.50;0.20;;;0.80;99.90;;;;;;20991128;28;20040;-48
2023/12/05 16:30:20;;;;;;;0.63;0.10;;;0.80;99.90;;;;;;20990962;28;20028;-52
2023/12/05 16:40:22;;;;;;;0.15;0.00;;;0.80;99.90;;;;;;20991129;28;20094;-51
2023/12/05 16:50:28;;;;;;;0.50;0.30;;;0.90;99.90;;;;;;20990468;28;20041;-50
2023/12/05 17:00:33;;;;;;;0.10;0.10;;;0.70;99.90;;;;;;20989170;28;20032;-48
2023/12/05 17:10:35;;;;;;;0.20;0.20;;;0.60;99.90;;;;;;20971714;28;20024;-52
2023/12/05 17:20:37;;;;;;;8.10;3.22;;;0.50;99.90;;;;;;20989251;28;20041;-52
2023/12/05 17:30:39;;;;;;;0.32;0.10;;;0.40;99.90;;;;;;20906927;28;20037;-51
2023/12/05 17:40:41;;;;;;;0.52;0.20;;;0.50;99.90;;;;;;20887740;28;20495;-54
2023/12/05 17:50:42;;;;;;;0.25;0.10;;;0.60;99.90;;;;;;20905323;28;20036;-53
2023/12/05 18:00:44;;;;;;;0.10;0.08;;;0.50;99.90;;;;;;20904589;28;20029;-50
2023/12/05 18:10:46;;;;;;;0.22;0.10;;;0.40;99.90;;;;;;20903606;28;20082;-54
2023/12/05 18:20:48;;;;;;;0.20;0.10;;;0.40;99.90;;;;;;20918352;28;20048;-52
2023/12/05 18:30:50;;;;;;;0.15;0.10;;;0.40;99.90;;;;;;20918371;28;20060;-51
2023/12/05 18:40:52;;;;;;;0.10;0.10;;;0.20;99.90;;;;;;20917513;28;20045;-51
2023/12/05 18:50:53;;;;;;;0.20;0.10;;;0.30;99.90;;;;;;20916379;28;20087;-48
2023/12/05 19:00:55;;;;;;;0.20;0.10;;;0.40;99.90;;;;;;20915945;28;20048;-55
2023/12/05 19:10:58;;;;;;;0.20;0.10;;;0.20;99.90;;;;;;20914962;28;20029;-55
2023/12/05 19:21:06;;;;;;;0.30;0.10;;;0.20;99.90;;;;;;20952156;28;20083;-54
2023/12/05 19:31:08;;;;;;;0.10;0.08;;;0.40;99.90;;;;;;20915544;28;20067;-51
2023/12/05 19:41:10;;;;;;;0.20;0.10;;;0.50;99.90;;;;;;20950377;28;20036;-54
2023/12/05 19:51:11;;;;;;;0.20;0.10;;;0.70;99.90;;;;;;20911887;28;20086;-54
2023/12/05 20:01:13;;;;;;;0.13;0.10;;;0.70;99.90;;;;;;20916617;28;20040;-55
2023/12/05 20:11:17;;;;;;;0.10;0.00;;;0.90;99.90;;;;;;20974977;28;20440;-52
2023/12/05 20:21:19;;;;;;;0.10;0.00;;;0.90;99.90;;;;;;20963802;28;20036;-54
2023/12/05 20:31:21;;;;;;;0.95;0.15;;;0.90;99.90;;;;;;20991823;28;20101;-54
2023/12/05 20:41:23;;;;;;;0.10;0.10;;;1.00;99.90;;;;;;20991172;28;20378;-53
2023/12/05 20:51:25;;;;;;;0.22;0.08;;;1.00;99.90;;;;;;20972655;28;20029;-53
2023/12/05 21:01:27;;;;;;;0.17;0.10;;;0.90;99.90;;;;;;20990161;28;20367;-54
2023/12/05 21:11:30;;;;;;;0.00;0.00;;;0.90;99.90;;;;;;20989588;28;20032;-50
2023/12/05 21:21:32;;;;;;;0.20;0.00;;;0.90;99.90;;;;;;20964729;28;20048;-51
2023/12/05 21:31:34;;;;;;;0.22;0.00;;;1.00;99.90;;;;;;20986738;28;20036;-54
2023/12/05 21:41:36;;;;;;;0.20;0.10;;;0.90;99.90;;;;;;20989676;28;20037;-52
2023/12/05 21:51:38;;;;;;;0.20;0.10;;;1.00;99.90;;;;;;21003359;28;20029;-54
2023/12/05 22:01:40;;;;;;;0.10;0.08;;;1.00;99.90;;;;;;21002987;28;20428;-51
2023/12/05 22:11:42;;;;;;;0.20;0.10;;;1.10;99.90;;;;;;21001979;28;20493;-52
2023/12/05 22:21:44;;;;;;;0.13;0.00;;;1.10;99.90;;;;;;21001081;28;20044;-50
2023/12/05 22:31:45;;;;;;;0.28;0.10;;;1.10;99.90;;;;;;21000801;28;20040;-52
2023/12/05 22:41:47;;;;;;;0.10;0.10;;;0.90;99.90;;;;;;21000322;28;20036;-48
2023/12/05 22:51:49;;;;;;;0.10;0.08;;;0.70;99.90;;;;;;20999339;28;20024;-53
2023/12/05 23:01:51;;;;;;;0.10;0.00;;;0.50;99.90;;;;;;20997072;28;20098;-55
2023/12/05 23:11:52;;;;;;;0.25;0.00;;;0.60;99.90;;;;;;20997004;28;20090;-55
2023/12/05 23:21:54;;;;;;;0.30;0.10;;;0.50;99.90;;;;;;20988418;28;20033;-54
2023/12/05 23:31:56;;;;;;;0.03;0.00;;;0.30;99.90;;;;;;20995777;28;20029;-56
2023/12/05 23:41:58;;;;;;;0.57;0.10;;;0.00;99.90;;;;;;20995115;28;20051;-55
2023/12/05 23:51:59;;;;;;;0.00;0.00;;;-0.10;99.90;;;;;;20976204;28;20061;-52
